Time;durP1;ratioP1;P1;durP2;ratioP2;P2;SDS_P1;SDS_P2;PMS_P1;PMS_P2;Temp;Humidity;BMP_temperature;BMP_pressure;BME280_temperature;BME280_humidity;BME280_pressure;Samples;Min_cycle;Max_cycle;Signal;HPM_P1;HPM_P2
2024/01/06 00:00:26;;;;;;;;;;;;;;;8.71;60.64;98182.81;4437037;32;34786;-84
2024/01/06 00:02:53;;;;;;;;;;;;;;;8.74;60.49;98187.97;4437139;32;35175;-88
2024/01/06 00:05:21;;;;;;;;;;;;;;;8.76;60.60;98185.41;4436678;32;34057;-87
2024/01/06 00:07:49;;;;;;;;;;;;;;;8.85;60.30;98184.59;4436753;32;33014;-84
2024/01/06 00:10:17;;;;;;;;;;;;;;;8.90;59.95;98180.28;4436944;32;34221;-85
2024/01/06 00:12:44;;;;;;;;;;;;;;;8.96;59.69;98178.59;4437164;32;33960;-84
2024/01/06 00:15:11;;;;;;;;;;;;;;;9.02;59.45;98175.19;4435923;32;35357;-84
2024/01/06 00:17:39;;;;;;;;;;;;;;;8.92;58.82;98163.06;4436763;32;33329;-90
2024/01/06 00:20:07;;;;;;;;;;;;;;;8.73;59.29;98163.00;4435806;32;34884;-84
2024/01/06 00:22:35;;;;;;;;;;;;;;;8.63;60.03;98171.56;4436822;32;34985;-83
2024/01/06 00:25:02;;;;;;;;;;;;;;;8.38;60.14;98159.41;4436159;32;35061;-86
2024/01/06 00:27:30;;;;;;;;;;;;;;;8.84;59.05;98157.03;4436468;32;34418;-85
2024/01/06 00:29:57;;;;;;;;;;;;;;;9.00;58.69;98163.97;4436961;32;34184;-83
2024/01/06 00:32:25;;;;;;;;;;;;;;;8.81;59.31;98162.19;4436618;32;34955;-89
2024/01/06 00:34:52;;;;;;;;;;;;;;;8.95;58.76;98158.78;4436517;32;33606;-84
2024/01/06 00:37:19;;;;;;;;;;;;;;;8.49;60.07;98158.59;4436825;32;33250;-85
2024/01/06 00:39:47;;;;;;;;;;;;;;;8.76;58.71;98155.28;4436591;32;34660;-88
2024/01/06 00:42:14;;;;;;;;;;;;;;;8.37;59.82;98157.63;4436595;32;33573;-84
2024/01/06 00:44:45;;;;;;;;;;;;;;;8.57;59.27;98156.06;4436624;32;33987;-84
2024/01/06 00:47:12;;;;;;;;;;;;;;;8.13;60.87;98148.03;4436574;32;33312;-90
2024/01/06 00:49:39;;;;;;;;;;;;;;;7.79;61.79;98148.66;4436846;32;34393;-84
2024/01/06 00:52:07;;;;;;;;;;;;;;;8.18;61.07;98148.91;4436722;32;34498;-83
2024/01/06 00:54:34;;;;;;;;;;;;;;;8.15;61.17;98141.19;4436331;32;34170;-83
2024/01/06 00:57:02;;;;;;;;;;;;;;;8.07;61.61;98143.72;4436458;32;34132;-84
2024/01/06 00:59:29;;;;;;;;;;;;;;;8.02;62.08;98141.06;4435652;32;34038;-83
2024/01/06 01:01:56;;;;;;;;;;;;;;;8.40;61.19;98160.25;4436017;32;35348;-85
2024/01/06 01:04:23;;;;;;;;;;;;;;;8.38;61.04;98157.69;4436687;32;34007;-83
2024/01/06 01:06:51;;;;;;;;;;;;;;;8.37;61.27;98152.47;4434747;32;33487;-84
2024/01/06 01:09:18;;;;;;;;;;;;;;;7.84;63.11;98150.41;4436469;32;34018;-85
2024/01/06 01:11:46;;;;;;;;;;;;;;;8.04;62.62;98148.84;4436309;32;33401;-83
2024/01/06 01:14:13;;;;;;;;;;;;;;;8.41;61.82;98149.06;4436733;32;35030;-82
2024/01/06 01:16:40;;;;;;;;;;;;;;;8.33;62.15;98153.31;4436139;32;33091;-83
2024/01/06 01:19:07;;;;;;;;;;;;;;;7.73;64.13;98145.19;4435578;32;34598;-84
2024/01/06 01:21:35;;;;;;;;;;;;;;;8.07;63.35;98153.16;4436728;32;34162;-84
2024/01/06 01:24:02;;;;;;;;;;;;;;;8.35;62.80;98149.03;4436332;32;34325;-90
2024/01/06 01:26:30;;;;;;;;;;;;;;;8.39;62.19;98148.22;4436469;32;33457;-84
2024/01/06 01:28:57;;;;;;;;;;;;;;;7.88;64.05;98150.47;4436156;32;33326;-82
2024/01/06 01:31:24;;;;;;;;;;;;;;;8.29;63.30;98150.69;4436537;32;34319;-84
2024/01/06 01:33:52;;;;;;;;;;;;;;;7.79;64.66;98143.50;4436487;32;33778;-83
2024/01/06 01:36:19;;;;;;;;;;;;;;;7.73;65.52;98140.91;4436678;32;32752;-83
2024/01/06 01:38:47;;;;;;;;;;;;;;;7.77;65.55;98139.19;4435972;32;34998;-82
2024/01/06 01:41:14;;;;;;;;;;;;;;;7.64;65.75;98143.38;4427853;32;34398;-89
2024/01/06 01:43:41;;;;;;;;;;;;;;;7.48;66.81;98142.41;4435688;32;35010;-84
2024/01/06 01:46:09;;;;;;;;;;;;;;;7.60;66.42;98143.34;4435843;32;34337;-83
2024/01/06 01:48:36;;;;;;;;;;;;;;;7.66;66.18;98131.38;4434983;32;33465;-87
2024/01/06 01:51:03;;;;;;;;;;;;;;;7.58;66.62;98127.88;4435991;32;35281;-87
2024/01/06 01:53:31;;;;;;;;;;;;;;;7.29;67.66;98125.91;4436270;32;34263;-84
2024/01/06 01:55:58;;;;;;;;;;;;;;;7.62;66.88;98123.63;4434676;32;34297;-89
2024/01/06 01:58:25;;;;;;;;;;;;;;;7.37;67.92;98113.09;4435834;32;33834;-83
2024/01/06 02:00:53;;;;;;;;;;;;;;;7.91;66.03;98105.72;4436168;32;34236;-84
2024/01/06 02:03:21;;;;;;;;;;;;;;;7.53;67.55;98108.91;4436045;32;34356;-83
2024/01/06 02:05:48;;;;;;;;;;;;;;;7.44;68.06;98116.59;4434836;32;34390;-88
2024/01/06 02:08:15;;;;;;;;;;;;;;;7.83;66.74;98112.56;4435839;32;34023;-85
2024/01/06 02:10:43;;;;;;;;;;;;;;;8.17;65.62;98109.31;4435481;32;33672;-85
2024/01/06 02:13:10;;;;;;;;;;;;;;;7.72;67.14;98115.06;4436064;32;33873;-83
2024/01/06 02:15:38;;;;;;;;;;;;;;;8.06;65.86;98105.81;4436015;32;34037;-83
2024/01/06 02:18:05;;;;;;;;;;;;;;;8.35;65.16;98107.69;4435523;32;35129;-84
2024/01/06 02:20:33;;;;;;;;;;;;;;;7.86;66.33;98108.28;4435907;32;34400;-84
2024/01/06 02:23:01;;;;;;;;;;;;;;;7.83;66.80;98099.66;4433821;32;34290;-82
2024/01/06 02:25:30;;;;;;;;;;;;;;;7.67;67.42;98102.13;4433689;32;34336;-85
2024/01/06 02:27:58;;;;;;;;;;;;;;;7.77;66.99;98096.19;4435810;32;34333;-86
2024/01/06 02:30:25;;;;;;;;;;;;;;;7.88;67.04;98087.63;4435702;32;34247;-86
2024/01/06 02:32:52;;;;;;;;;;;;;;;7.57;68.09;98095.19;4435531;32;34481;-85
2024/01/06 02:35:20;;;;;;;;;;;;;;;7.82;67.25;98090.22;4435594;32;34087;-84
2024/01/06 02:37:47;;;;;;;;;;;;;;;7.59;67.93;98087.47;4433884;32;34863;-89
2024/01/06 02:40:14;;;;;;;;;;;;;;;7.86;67.60;98086.78;4437515;32;33676;-84
2024/01/06 02:42:42;;;;;;;;;;;;;;;7.83;67.51;98085.03;4437750;32;35126;-84
2024/01/06 02:45:09;;;;;;;;;;;;;;;7.58;68.53;98084.03;4435723;32;34043;-84
2024/01/06 02:47:37;;;;;;;;;;;;;;;7.48;69.08;98085.66;4437466;32;34325;-84
2024/01/06 02:50:05;;;;;;;;;;;;;;;6.96;70.88;98085.22;4437224;32;35389;-83
2024/01/06 02:52:32;;;;;;;;;;;;;;;7.45;69.71;98079.63;4437167;32;34109;-84
2024/01/06 02:55:00;;;;;;;;;;;;;;;7.78;68.41;98068.69;4436425;32;33566;-89
2024/01/06 02:57:29;;;;;;;;;;;;;;;7.73;68.54;98068.66;4436803;32;34813;-83
2024/01/06 02:59:56;;;;;;;;;;;;;;;8.13;67.25;98068.00;4435962;32;34772;-83
2024/01/06 03:02:23;;;;;;;;;;;;;;;7.95;67.59;98066.19;4437083;32;34906;-84
2024/01/06 03:04:51;;;;;;;;;;;;;;;7.66;68.39;98059.16;4437360;32;33488;-84
2024/01/06 03:07:18;;;;;;;;;;;;;;;7.05;70.77;98058.69;4437360;32;34609;-83
2024/01/06 03:09:45;;;;;;;;;;;;;;;7.16;70.96;98048.44;4437342;32;35073;-88
2024/01/06 03:12:13;;;;;;;;;;;;;;;7.30;70.51;98050.28;4436879;32;34229;-84
2024/01/06 03:14:40;;;;;;;;;;;;;;;7.04;71.55;98044.03;4437532;32;33455;-88
2024/01/06 03:17:10;;;;;;;;;;;;;;;7.17;71.05;98038.16;4437257;32;34945;-82
2024/01/06 03:19:38;;;;;;;;;;;;;;;7.25;70.89;98040.81;4437450;32;34505;-83
2024/01/06 03:22:05;;;;;;;;;;;;;;;7.48;70.13;98035.81;4436905;32;34081;-83
2024/01/06 03:24:33;;;;;;;;;;;;;;;7.28;70.87;98039.09;4436166;32;33513;-86
2024/01/06 03:27:00;;;;;;;;;;;;;;;7.42;69.91;98028.03;4436942;32;33965;-82
2024/01/06 03:29:27;;;;;;;;;;;;;;;7.56;69.59;98028.97;4437037;32;33907;-83
2024/01/06 03:31:54;;;;;;;;;;;;;;;7.65;69.37;98041.06;4436700;32;34379;-84
2024/01/06 03:34:22;;;;;;;;;;;;;;;7.86;68.53;98040.34;4437258;32;33700;-84
2024/01/06 03:36:49;;;;;;;;;;;;;;;7.39;69.77;98039.19;4437038;32;34304;-84
2024/01/06 03:39:17;;;;;;;;;;;;;;;7.41;69.89;98039.19;4423141;32;34019;-84
2024/01/06 03:41:44;;;;;;;;;;;;;;;7.80;68.53;98052.38;4437053;32;34244;-88
2024/01/06 03:44:11;;;;;;;;;;;;;;;7.43;69.79;98040.94;4437033;32;33648;-84
2024/01/06 03:46:38;;;;;;;;;;;;;;;7.25;70.58;98054.56;4437100;32;34757;-89
2024/01/06 03:49:06;;;;;;;;;;;;;;;7.16;70.99;98067.38;4437121;32;35059;-83
2024/01/06 03:51:34;;;;;;;;;;;;;;;7.77;68.88;98062.66;4436123;32;34024;-82
2024/01/06 03:54:01;;;;;;;;;;;;;;;7.17;70.80;98074.25;4436758;32;33316;-82
2024/01/06 03:56:28;;;;;;;;;;;;;;;7.38;70.07;98083.84;4436969;32;35458;-83
2024/01/06 03:58:56;;;;;;;;;;;;;;;7.33;70.37;98090.69;4437000;32;33981;-83
2024/01/06 04:01:23;;;;;;;;;;;;;;;6.98;71.66;98086.09;4437323;32;35050;-82
2024/01/06 04:03:50;;;;;;;;;;;;;;;7.40;71.07;98071.84;4436892;32;32979;-83
2024/01/06 04:06:18;;;;;;;;;;;;;;;7.23;71.45;98074.28;4437379;32;33854;-84
2024/01/06 04:08:45;;;;;;;;;;;;;;;7.25;71.70;98061.44;4435939;32;34638;-83
2024/01/06 04:11:12;;;;;;;;;;;;;;;7.22;72.08;98059.69;4436604;32;34091;-87
2024/01/06 04:13:40;;;;;;;;;;;;;;;7.26;71.86;98070.88;4436863;32;34241;-84
2024/01/06 04:16:07;;;;;;;;;;;;;;;7.83;70.37;98081.59;4437058;32;33729;-83
2024/01/06 04:18:34;;;;;;;;;;;;;;;7.88;69.69;98082.47;4437205;32;34540;-88
2024/01/06 04:21:02;;;;;;;;;;;;;;;8.28;68.48;98086.16;4436922;32;33953;-87
2024/01/06 04:23:29;;;;;;;;;;;;;;;7.81;69.90;98081.59;4436774;32;32911;-84
2024/01/06 04:25:57;;;;;;;;;;;;;;;8.04;69.55;98084.31;4435988;32;35116;-83
2024/01/06 04:28:24;;;;;;;;;;;;;;;7.51;71.44;98077.09;4436628;32;34303;-85
2024/01/06 04:30:51;;;;;;;;;;;;;;;7.61;71.88;98093.50;4436917;32;34465;-85
2024/01/06 04:33:19;;;;;;;;;;;;;;;7.40;72.67;98077.00;4436747;32;33631;-83
2024/01/06 04:35:46;;;;;;;;;;;;;;;7.38;72.98;98077.84;4437108;32;34216;-84
2024/01/06 04:38:14;;;;;;;;;;;;;;;7.42;73.13;98074.44;4437008;32;34837;-84
2024/01/06 04:40:41;;;;;;;;;;;;;;;7.55;72.70;98076.28;4436716;32;34495;-87
2024/01/06 04:43:08;;;;;;;;;;;;;;;7.73;72.22;98073.81;4436436;32;32969;-83
2024/01/06 04:45:37;;;;;;;;;;;;;;;7.31;73.71;98079.50;4436651;32;34721;-82
2024/01/06 04:48:04;;;;;;;;;;;;;;;7.47;73.35;98072.78;4436407;32;34304;-83
2024/01/06 04:50:32;;;;;;;;;;;;;;;7.73;72.20;98060.91;4436860;32;33858;-83
2024/01/06 04:52:59;;;;;;;;;;;;;;;7.55;73.14;98065.94;4436788;32;32923;-82
2024/01/06 04:55:27;;;;;;;;;;;;;;;7.44;73.38;98060.72;4436326;32;35044;-84
2024/01/06 04:57:54;;;;;;;;;;;;;;;8.03;71.43;98064.50;4436029;32;34911;-82
2024/01/06 05:00:21;;;;;;;;;;;;;;;8.08;71.11;98064.56;4436591;32;33434;-83
2024/01/06 05:02:48;;;;;;;;;;;;;;;8.03;71.40;98065.37;4436761;32;33637;-83
2024/01/06 05:05:16;;;;;;;;;;;;;;;8.11;71.15;98054.25;4436010;32;33863;-83
2024/01/06 05:07:43;;;;;;;;;;;;;;;7.94;71.84;98056.72;4436331;32;35004;-83
2024/01/06 05:10:10;;;;;;;;;;;;;;;7.50;73.49;98054.72;4436463;32;34880;-83
2024/01/06 05:12:38;;;;;;;;;;;;;;;8.00;72.01;98041.28;4436258;32;32943;-83
2024/01/06 05:15:05;;;;;;;;;;;;;;;7.68;73.06;98044.53;4437072;32;34102;-83
2024/01/06 05:17:33;;;;;;;;;;;;;;;7.53;73.86;98047.00;4436762;32;34843;-83
2024/01/06 05:20:00;;;;;;;;;;;;;;;7.69;73.37;98045.38;4436628;32;33799;-83
2024/01/06 05:22:27;;;;;;;;;;;;;;;7.19;75.33;98044.19;4435821;32;32660;-83
2024/01/06 05:24:55;;;;;;;;;;;;;;;7.12;75.66;98039.81;4436318;32;34092;-81
2024/01/06 05:27:22;;;;;;;;;;;;;;;7.28;75.50;98048.56;4436386;32;33995;-83
2024/01/06 05:29:51;;;;;;;;;;;;;;;7.00;76.51;98055.19;4436216;32;34902;-83
2024/01/06 05:32:20;;;;;;;;;;;;;;;6.94;77.02;98052.56;4436437;32;33309;-84
2024/01/06 05:34:48;;;;;;;;;;;;;;;7.25;76.16;98061.44;4436450;32;34182;-83
2024/01/06 05:37:15;;;;;;;;;;;;;;;7.25;76.04;98058.84;4435091;32;34956;-83
2024/01/06 05:39:43;;;;;;;;;;;;;;;6.99;77.40;98059.47;4435881;32;34933;-84
2024/01/06 05:42:14;;;;;;;;;;;;;;;7.12;77.28;98065.59;4435968;32;32410;-82
2024/01/06 05:44:41;;;;;;;;;;;;;;;6.89;78.27;98074.81;4435908;32;34892;-87
2024/01/06 05:47:09;;;;;;;;;;;;;;;6.93;78.13;98074.00;4436336;32;33800;-82
2024/01/06 05:49:36;;;;;;;;;;;;;;;7.25;77.13;98082.03;4435903;32;34955;-82
2024/01/06 05:52:04;;;;;;;;;;;;;;;7.09;77.89;98086.22;4434828;32;33415;-85
2024/01/06 05:54:31;;;;;;;;;;;;;;;6.85;79.25;98085.94;4436251;32;34157;-83
2024/01/06 05:56:59;;;;;;;;;;;;;;;7.15;78.31;98086.25;4435550;32;34169;-83
2024/01/06 05:59:26;;;;;;;;;;;;;;;6.82;79.40;98089.38;4436480;32;34795;-83
2024/01/06 06:01:54;;;;;;;;;;;;;;;6.75;79.54;98075.56;4436106;32;32661;-83
2024/01/06 06:04:21;;;;;;;;;;;;;;;6.90;79.84;98074.00;4436006;32;35082;-88
2024/01/06 06:06:49;;;;;;;;;;;;;;;6.98;79.65;98074.94;4436435;32;34307;-84
2024/01/06 06:09:16;;;;;;;;;;;;;;;7.46;76.93;98060.72;4435623;32;34463;-82
2024/01/06 06:11:43;;;;;;;;;;;;;;;7.25;77.82;98067.44;4435981;32;33482;-83
2024/01/06 06:14:11;;;;;;;;;;;;;;;6.71;80.19;98067.81;4435102;32;34025;-89
2024/01/06 06:16:38;;;;;;;;;;;;;;;7.03;79.37;98070.69;4435978;32;34281;-90
2024/01/06 06:19:06;;;;;;;;;;;;;;;7.04;79.38;98082.69;4434414;32;34052;-89
2024/01/06 06:21:34;;;;;;;;;;;;;;;7.12;79.55;98073.31;4435737;32;32604;-84
2024/01/06 06:24:01;;;;;;;;;;;;;;;7.06;79.80;98065.56;4435905;32;33971;-82
2024/01/06 06:26:29;;;;;;;;;;;;;;;7.24;78.81;98062.28;4435132;32;35299;-88
2024/01/06 06:28:56;;;;;;;;;;;;;;;7.42;78.06;98069.28;4435236;32;34360;-83
2024/01/06 06:31:24;;;;;;;;;;;;;;;7.07;79.03;98059.53;4435738;32;33367;-83
2024/01/06 06:33:51;;;;;;;;;;;;;;;7.06;79.54;98048.38;4435553;32;34976;-83
2024/01/06 06:36:20;;;;;;;;;;;;;;;7.29;78.68;98053.72;4435691;32;34358;-91
2024/01/06 06:38:47;;;;;;;;;;;;;;;6.79;80.63;98043.84;4434279;32;33836;-83
2024/01/06 06:41:16;;;;;;;;;;;;;;;7.03;79.70;98058.66;4435509;32;34236;-85
2024/01/06 06:43:43;;;;;;;;;;;;;;;7.17;79.85;98058.78;4435136;32;34294;-83
2024/01/06 06:46:10;;;;;;;;;;;;;;;7.28;78.86;98061.44;4435001;32;35200;-83
2024/01/06 06:48:38;;;;;;;;;;;;;;;7.31;78.55;98062.34;4435408;32;34068;-84
2024/01/06 06:51:05;;;;;;;;;;;;;;;7.05;79.07;98061.25;4435970;32;33441;-86
2024/01/06 06:53:32;;;;;;;;;;;;;;;6.92;80.18;98070.56;4435059;32;33945;-83
2024/01/06 06:56:00;;;;;;;;;;;;;;;7.03;79.40;98065.53;4434437;32;34361;-86
2024/01/06 06:58:27;;;;;;;;;;;;;;;6.97;79.41;98071.50;4420955;32;32976;-82
2024/01/06 07:00:54;;;;;;;;;;;;;;;6.82;80.58;98061.06;4435074;32;32798;-82
2024/01/06 07:03:22;;;;;;;;;;;;;;;6.88;80.97;98053.34;4435520;32;35152;-81
2024/01/06 07:05:49;;;;;;;;;;;;;;;6.81;81.17;98049.00;4434837;32;34475;-84
2024/01/06 07:08:18;;;;;;;;;;;;;;;7.05;80.46;98045.78;4435108;32;33755;-82
2024/01/06 07:10:45;;;;;;;;;;;;;;;7.17;79.43;98051.06;4434121;32;33393;-83
2024/01/06 07:13:12;;;;;;;;;;;;;;;7.21;79.16;98045.06;4435148;32;34858;-82
2024/01/06 07:15:39;;;;;;;;;;;;;;;6.92;80.79;98047.38;4435188;32;35066;-82
2024/01/06 07:18:07;;;;;;;;;;;;;;;6.84;81.35;98049.03;4435507;32;34177;-83
2024/01/06 07:20:34;;;;;;;;;;;;;;;7.38;79.40;98049.47;4434771;32;33948;-86
2024/01/06 07:23:03;;;;;;;;;;;;;;;7.58;78.32;98045.34;4436605;32;33693;-81
2024/01/06 07:25:30;;;;;;;;;;;;;;;7.69;77.56;98055.69;4436217;32;34128;-82
2024/01/06 07:27:57;;;;;;;;;;;;;;;7.25;78.88;98059.69;4437087;32;34123;-83
2024/01/06 07:30:25;;;;;;;;;;;;;;;7.27;79.26;98058.03;4435778;32;33421;-84
2024/01/06 07:32:52;;;;;;;;;;;;;;;7.10;80.24;98059.56;4437472;32;34204;-84
2024/01/06 07:35:21;;;;;;;;;;;;;;;7.57;78.08;98049.63;4437350;32;34409;-81
2024/01/06 07:37:48;;;;;;;;;;;;;;;7.66;78.09;98042.81;4436689;32;34218;-84
2024/01/06 07:40:16;;;;;;;;;;;;;;;7.67;77.66;98044.53;4437012;32;33641;-81
2024/01/06 07:42:44;;;;;;;;;;;;;;;7.78;77.79;98046.31;4423596;32;33627;-87
2024/01/06 07:45:12;;;;;;;;;;;;;;;7.57;78.54;98046.16;4436158;32;34379;-86
2024/01/06 07:47:39;;;;;;;;;;;;;;;7.74;77.86;98042.00;4436228;32;34433;-84
2024/01/06 07:50:07;;;;;;;;;;;;;;;7.62;78.45;98036.78;4437224;32;33483;-84
2024/01/06 07:52:35;;;;;;;;;;;;;;;7.49;79.20;98040.97;4436638;32;34034;-87
2024/01/06 07:55:03;;;;;;;;;;;;;;;7.68;78.77;98041.09;4437193;32;34246;-81
2024/01/06 07:57:30;;;;;;;;;;;;;;;7.41;79.90;98039.19;4437074;32;34251;-85
2024/01/06 07:59:58;;;;;;;;;;;;;;;7.43;80.45;98035.78;4436749;32;34278;-87
2024/01/06 08:02:38;;;;;;;;;;;;;;;7.43;80.64;98040.09;4436740;32;33881;-83
2024/01/06 08:05:07;;;;;;;;;;;;;;;7.02;82.74;98051.78;4437050;32;34162;-86
2024/01/06 08:07:34;;;;;;;;;;;;;;;6.89;84.03;98046.50;4436839;32;33908;-84
2024/01/06 08:10:04;;;;;;;;;;;;;;;6.90;83.87;98040.50;4436856;32;33295;-86
2024/01/06 08:12:32;;;;;;;;;;;;;;;6.80;84.46;98048.13;4436665;32;34087;-82
2024/01/06 08:15:00;;;;;;;;;;;;;;;6.83;83.92;98048.16;4436166;32;34835;-85
2024/01/06 08:17:27;;;;;;;;;;;;;;;6.86;84.23;98038.72;4435174;32;34416;-87
2024/01/06 08:19:55;;;;;;;;;;;;;;;7.11;83.16;98039.81;4435771;32;33219;-83
2024/01/06 08:22:22;;;;;;;;;;;;;;;6.79;84.31;98042.97;4436900;32;33736;-90
2024/01/06 08:24:49;;;;;;;;;;;;;;;6.85;83.83;98053.31;4436219;32;35243;-83
2024/01/06 08:27:17;;;;;;;;;;;;;;;6.75;84.34;98047.25;4436829;32;34191;-87
2024/01/06 08:29:44;;;;;;;;;;;;;;;6.66;85.61;98059.13;4436709;32;34101;-83
2024/01/06 08:32:12;;;;;;;;;;;;;;;6.89;84.57;98052.50;4437008;32;34621;-83
2024/01/06 08:34:40;;;;;;;;;;;;;;;6.69;85.50;98054.03;4436341;32;34064;-81
2024/01/06 08:37:07;;;;;;;;;;;;;;;6.83;84.36;98048.16;4435716;32;33369;-90
2024/01/06 08:39:35;;;;;;;;;;;;;;;7.11;83.28;98057.84;4436873;32;34490;-84
2024/01/06 08:42:02;;;;;;;;;;;;;;;6.66;85.46;98074.59;4436583;32;33843;-83
2024/01/06 08:44:29;;;;;;;;;;;;;;;6.49;86.55;98069.28;4436992;32;34501;-83
2024/01/06 08:46:57;;;;;;;;;;;;;;;6.53;86.44;98065.87;4436605;32;35072;-90
2024/01/06 08:49:24;;;;;;;;;;;;;;;6.53;86.23;98064.16;4436181;32;33693;-83
2024/01/06 08:51:51;;;;;;;;;;;;;;;6.60;84.80;98062.53;4436745;32;34306;-83
2024/01/06 08:54:19;;;;;;;;;;;;;;;6.42;85.79;98064.91;4435871;32;35278;-82
2024/01/06 08:56:47;;;;;;;;;;;;;;;6.65;85.42;98068.59;4436330;32;34086;-82
2024/01/06 08:59:14;;;;;;;;;;;;;;;6.45;86.35;98075.25;4436379;32;32856;-82
2024/01/06 09:01:42;;;;;;;;;;;;;;;6.46;86.10;98064.09;4435956;32;35221;-87
2024/01/06 09:04:11;;;;;;;;;;;;;;;6.46;86.34;98061.50;4436062;32;34233;-83
2024/01/06 09:06:38;;;;;;;;;;;;;;;6.59;85.61;98060.78;4437166;32;33745;-86
2024/01/06 09:09:06;;;;;;;;;;;;;;;6.55;85.91;98064.19;4440186;32;33208;-84
2024/01/06 09:11:33;;;;;;;;;;;;;;;6.54;85.93;98059.88;4444100;32;34221;-89
2024/01/06 09:14:00;;;;;;;;;;;;;;;6.39;86.78;98059.72;4436456;32;34013;-90
2024/01/06 09:16:28;;;;;;;;;;;;;;;6.30;86.87;98058.75;4436046;32;34832;-89
2024/01/06 09:18:55;;;;;;;;;;;;;;;6.27;87.24;98058.72;4436267;32;33217;-90
2024/01/06 09:21:22;;;;;;;;;;;;;;;6.42;87.29;98049.44;4436078;32;33936;-82
2024/01/06 09:23:49;;;;;;;;;;;;;;;6.45;87.07;98049.50;4436200;32;34292;-81
2024/01/06 09:26:17;;;;;;;;;;;;;;;6.71;85.82;98049.78;4435584;32;34423;-83
2024/01/06 09:28:44;;;;;;;;;;;;;;;6.99;84.59;98053.47;4436425;32;34309;-83
2024/01/06 09:31:11;;;;;;;;;;;;;;;6.99;84.09;98058.63;4436366;32;35005;-90
2024/01/06 09:33:39;;;;;;;;;;;;;;;7.10;83.23;98061.28;4434788;32;35282;-82
2024/01/06 09:36:08;;;;;;;;;;;;;;;6.96;84.00;98045.69;4436268;32;34239;-92
2024/01/06 09:38:35;;;;;;;;;;;;;;;6.78;84.46;98043.81;4436135;32;33290;-83
2024/01/06 09:41:03;;;;;;;;;;;;;;;6.88;84.68;98042.19;4436129;32;34663;-82
2024/01/06 09:43:30;;;;;;;;;;;;;;;6.65;85.33;98045.41;4435092;32;34272;-82
2024/01/06 09:45:58;;;;;;;;;;;;;;;6.50;86.51;98051.25;4435540;32;34282;-82
2024/01/06 09:48:29;;;;;;;;;;;;;;;6.48;87.52;98060.69;4432745;32;32950;-84
2024/01/06 09:50:56;;;;;;;;;;;;;;;6.69;86.67;98052.31;4432184;32;33754;-83
2024/01/06 09:53:24;;;;;;;;;;;;;;;6.48;87.27;98058.13;4435796;32;35254;-83
2024/01/06 09:55:52;;;;;;;;;;;;;;;6.45;87.79;98052.94;4433842;32;34150;-81
2024/01/06 09:58:19;;;;;;;;;;;;;;;6.87;85.60;98055.94;4434436;32;33128;-82
2024/01/06 10:00:48;;;;;;;;;;;;;;;7.25;83.90;98057.13;4431094;32;33796;-87
2024/01/06 10:03:16;;;;;;;;;;;;;;;7.05;84.65;98053.53;4438889;32;33791;-83
2024/01/06 10:05:43;;;;;;;;;;;;;;;7.01;85.34;98055.22;4435894;32;34162;-83
2024/01/06 10:08:10;;;;;;;;;;;;;;;6.91;85.69;98055.09;4436171;32;33433;-83
2024/01/06 10:10:38;;;;;;;;;;;;;;;6.82;86.08;98055.91;4436302;32;33944;-83
2024/01/06 10:13:06;;;;;;;;;;;;;;;7.14;84.75;98058.75;4436202;32;33823;-83
2024/01/06 10:15:34;;;;;;;;;;;;;;;6.89;86.14;98061.94;4419320;32;34150;-82
2024/01/06 10:18:03;;;;;;;;;;;;;;;7.03;85.83;98058.66;4432693;32;33780;-82
2024/01/06 10:20:30;;;;;;;;;;;;;;;7.15;85.26;98057.91;4434755;32;35093;-82
2024/01/06 10:22:57;;;;;;;;;;;;;;;7.35;83.84;98060.66;4421005;32;34446;-83
2024/01/06 10:25:25;;;;;;;;;;;;;;;7.19;84.61;98056.19;4421107;32;34222;-80
2024/01/06 10:27:55;;;;;;;;;;;;;;;7.02;85.70;98053.50;4426149;32;31733;-88
2024/01/06 10:30:23;;;;;;;;;;;;;;;7.36;84.71;98051.19;4434979;32;34354;-82
2024/01/06 10:32:51;;;;;;;;;;;;;;;7.06;86.28;98039.78;4420608;32;34458;-83
2024/01/06 10:35:19;;;;;;;;;;;;;;;7.37;84.98;98028.00;4435881;32;34210;-83
2024/01/06 10:37:47;;;;;;;;;;;;;;;7.40;84.60;98029.75;4435374;32;32746;-89
2024/01/06 10:40:18;;;;;;;;;;;;;;;7.58;83.44;98027.28;4432977;32;34141;-87
2024/01/06 10:42:45;;;;;;;;;;;;;;;7.04;86.12;98033.75;4439028;32;34492;-83
2024/01/06 10:45:13;;;;;;;;;;;;;;;7.20;85.65;98032.19;4438990;32;34088;-83
2024/01/06 10:47:42;;;;;;;;;;;;;;;7.59;83.70;98026.44;4421860;32;33192;-85
2024/01/06 10:50:10;;;;;;;;;;;;;;;7.57;83.87;98016.09;4433930;32;34050;-83
2024/01/06 10:52:37;;;;;;;;;;;;;;;7.20;85.02;98016.72;4420675;32;33986;-84
2024/01/06 10:55:05;;;;;;;;;;;;;;;7.43;84.91;98009.13;4432769;32;33977;-83
2024/01/06 10:57:33;;;;;;;;;;;;;;;7.49;84.70;97996.25;4433970;32;33014;-85
2024/01/06 11:00:00;;;;;;;;;;;;;;;7.69;83.57;97997.25;4422400;32;33539;-84
2024/01/06 11:02:28;;;;;;;;;;;;;;;7.50;84.43;97990.25;4437006;32;34286;-85
2024/01/06 11:04:55;;;;;;;;;;;;;;;7.44;84.99;97985.06;4433792;32;33963;-83
2024/01/06 11:07:23;;;;;;;;;;;;;;;7.46;85.56;97988.50;4435831;32;33058;-85
2024/01/06 11:09:56;;;;;;;;;;;;;;;7.31;86.35;97984.09;4422243;32;34227;-84
2024/01/06 11:12:26;;;;;;;;;;;;;;;7.51;85.45;97977.38;4434463;32;35356;-87
2024/01/06 11:14:54;;;;;;;;;;;;;;;7.33;86.55;97969.53;4421041;32;33888;-86
2024/01/06 11:17:55;;;;;;;;;;;;;;;7.64;85.40;97961.97;4436624;32;34084;-88
2024/01/06 11:20:23;;;;;;;;;;;;;;;7.69;85.16;97956.00;4418590;32;34851;-84
2024/01/06 11:22:50;;;;;;;;;;;;;;;7.54;86.04;97958.50;4435003;32;35148;-85
2024/01/06 11:25:19;;;;;;;;;;;;;;;7.62;85.29;97949.06;4434927;32;34034;-86
2024/01/06 11:27:48;;;;;;;;;;;;;;;7.79;84.42;97942.25;4436580;32;34144;-88
2024/01/06 11:30:35;;;;;;;;;;;;;;;7.50;86.10;97930.94;4447322;32;32591;-84
2024/01/06 11:33:04;;;;;;;;;;;;;;;7.86;85.25;97930.25;4427729;32;34199;-88
2024/01/06 11:35:32;;;;;;;;;;;;;;;8.25;82.71;97921.75;4428656;32;34564;-86
2024/01/06 11:38:03;;;;;;;;;;;;;;;8.07;83.06;97901.06;4433595;32;33314;-85
2024/01/06 11:40:32;;;;;;;;;;;;;;;8.02;83.37;97905.34;4436980;32;34900;-82
2024/01/06 11:43:02;;;;;;;;;;;;;;;7.67;85.01;97900.94;4436193;32;35105;-85
2024/01/06 11:45:29;;;;;;;;;;;;;;;8.12;83.25;97878.69;4435727;32;33868;-82
2024/01/06 11:48:04;;;;;;;;;;;;;;;7.91;83.80;97879.50;4436105;32;33990;-85
2024/01/06 11:50:32;;;;;;;;;;;;;;;8.01;82.96;97885.56;4432113;32;33871;-87
2024/01/06 11:53:00;;;;;;;;;;;;;;;7.98;83.59;97885.56;4435700;32;35218;-85
2024/01/06 11:55:34;;;;;;;;;;;;;;;8.15;83.00;97886.47;4425086;32;34335;-86
2024/01/06 11:58:02;;;;;;;;;;;;;;;7.80;84.30;97907.00;4426419;32;34492;-83
2024/01/06 12:00:32;;;;;;;;;;;;;;;7.76;84.24;97911.28;4434162;32;34041;-86
2024/01/06 12:03:00;;;;;;;;;;;;;;;7.68;85.34;97907.81;4425927;32;34194;-85
2024/01/06 12:05:30;;;;;;;;;;;;;;;7.41;86.27;97908.56;4436039;32;34539;-84
2024/01/06 12:07:58;;;;;;;;;;;;;;;7.47;86.66;97897.41;4436612;32;32413;-85
2024/01/06 12:10:26;;;;;;;;;;;;;;;7.52;85.82;97890.56;4435687;32;34127;-84
2024/01/06 12:13:00;;;;;;;;;;;;;;;7.59;85.39;97892.31;4420341;32;35030;-83
2024/01/06 12:15:29;;;;;;;;;;;;;;;7.85;84.36;97886.38;4436131;32;35115;-87
2024/01/06 12:17:56;;;;;;;;;;;;;;;7.72;84.69;97883.75;4436149;32;34100;-87
2024/01/06 12:20:24;;;;;;;;;;;;;;;7.74;84.21;97883.78;4435618;32;33988;-88
2024/01/06 12:22:51;;;;;;;;;;;;;;;7.84;83.95;97875.22;4434337;32;34167;-86
2024/01/06 12:25:22;;;;;;;;;;;;;;;8.01;82.64;97863.19;4435973;32;34183;-87
2024/01/06 12:27:50;;;;;;;;;;;;;;;8.04;82.14;97859.75;4424944;32;34399;-83
2024/01/06 12:30:21;;;;;;;;;;;;;;;8.26;81.60;97864.09;4421123;32;33676;-82
2024/01/06 12:32:49;;;;;;;;;;;;;;;8.06;82.02;97868.34;4422338;32;34345;-85
2024/01/06 12:35:16;;;;;;;;;;;;;;;8.36;80.52;97870.12;4428274;32;34180;-86
2024/01/06 12:37:47;;;;;;;;;;;;;;;7.78;83.04;97888.09;4436559;32;33969;-87
2024/01/06 12:40:19;;;;;;;;;;;;;;;7.79;83.24;97888.06;4434567;32;34441;-88
2024/01/06 12:42:47;;;;;;;;;;;;;;;8.10;82.18;97875.25;4433628;32;34169;-85
2024/01/06 12:45:16;;;;;;;;;;;;;;;8.28;81.33;97895.94;4436226;32;33901;-82
2024/01/06 12:47:43;;;;;;;;;;;;;;;8.26;80.56;97897.66;4446651;32;33483;-86
2024/01/06 12:50:12;;;;;;;;;;;;;;;7.53;83.75;97918.06;4424901;32;34054;-86
2024/01/06 12:52:39;;;;;;;;;;;;;;;7.49;84.76;97916.31;4436136;32;34397;-83
2024/01/06 12:55:07;;;;;;;;;;;;;;;7.34;85.15;97908.50;4436231;32;33758;-87
2024/01/06 12:57:36;;;;;;;;;;;;;;;7.27;86.28;97908.50;4416059;32;33715;-82
2024/01/06 13:00:05;;;;;;;;;;;;;;;7.54;85.26;97909.50;4437006;32;33597;-86